Appleton, Wisconsin
Current Conditions -  °F | °C
As of 8:45 PM on Friday 24 Oct 2014 (Local Time) from KATW Reporting Station
Overcast Overcast  
Wind Chill: 54°   Ceiling: 2500
Heat Index: 54°   Visibility: 10mi
Dew Point: 50°   Wind: 7mph
Humidity: 88%   Direction: 180°S
Pressure: 29.89"   Gusts: NA
Location:  44.26°N, 88.42°W
Report Text: KATW 250145Z 18006KT 10SM BKN025 OVC045 12/10 A2989
Loading
Personal Weather Stations






























Interactive Weather Map New forecast layout! Learn more

10-Day Weather Forecast

Advertisements
Track Severe Weather on mobile